createdAt,value
2022-12-19T00:03:29.206Z,9.90
2022-12-19T00:08:34.389Z,8.80
2022-12-19T00:13:41.150Z,14.20
2022-12-19T00:18:48.649Z,13.50
2022-12-19T00:23:54.944Z,8.20
2022-12-19T00:29:09.835Z,10.70
2022-12-19T00:34:17.409Z,7.90
2022-12-19T00:39:22.799Z,11.80
2022-12-19T00:44:28.971Z,15.40
2022-12-19T00:49:32.487Z,11.30
2022-12-19T00:54:37.335Z,10.10
2022-12-19T00:59:41.735Z,8.70
2022-12-19T01:04:45.687Z,14.20
2022-12-19T01:09:50.121Z,12.00
2022-12-19T01:15:04.435Z,11.60
2022-12-19T01:20:11.385Z,11.60
2022-12-19T01:25:16.672Z,11.00
2022-12-19T01:30:21.233Z,11.80
2022-12-19T01:35:27.075Z,11.00
2022-12-19T01:40:32.152Z,8.70
2022-12-19T01:45:45.482Z,15.00
2022-12-19T01:51:01.359Z,10.30
2022-12-19T01:56:11.626Z,11.40
2022-12-19T02:01:18.985Z,14.30
2022-12-19T02:11:28.916Z,13.50
2022-12-19T02:16:56.655Z,13.00
2022-12-19T02:22:24.459Z,12.80
2022-12-19T02:27:37.137Z,9.40
2022-12-19T02:32:52.414Z,9.90
2022-12-19T02:38:02.945Z,12.40
2022-12-19T02:43:13.809Z,10.90
2022-12-19T02:53:24.987Z,12.90
2022-12-19T02:58:40.014Z,12.20
2022-12-19T03:03:47.170Z,7.10
2022-12-19T03:09:36.898Z,13.50
2022-12-19T03:14:42.308Z,9.90
2022-12-19T03:19:46.372Z,9.40
2022-12-19T03:24:51.678Z,9.80
2022-12-19T03:30:12.999Z,10.70
2022-12-19T03:35:30.312Z,10.20
2022-12-19T03:40:37.672Z,12.10
2022-12-19T03:45:58.591Z,8.80
2022-12-19T03:51:09.118Z,10.40
2022-12-19T03:56:57.181Z,8.20
2022-12-19T04:02:03.724Z,10.10
2022-12-19T04:07:09.039Z,11.60
2022-12-19T04:12:19.569Z,10.60
2022-12-19T04:17:37.512Z,8.00
2022-12-19T04:23:07.605Z,10.20
2022-12-19T04:28:31.566Z,11.90
2022-12-19T04:33:36.593Z,13.20
2022-12-19T04:38:41.620Z,9.10
2022-12-19T04:43:45.246Z,10.40
2022-12-19T04:48:49.701Z,11.90
2022-12-19T04:53:54.949Z,8.70
2022-12-19T04:59:00.553Z,10.40
2022-12-19T05:04:05.390Z,10.60
2022-12-19T05:09:14.690Z,13.60
2022-12-19T05:14:18.851Z,11.40
2022-12-19T05:19:23.238Z,11.70
2022-12-19T05:24:28.367Z,14.50
2022-12-19T05:29:33.445Z,13.30
2022-12-19T05:34:38.478Z,15.40
2022-12-19T05:39:43.905Z,12.90
2022-12-19T05:44:49.164Z,15.20
2022-12-19T05:49:54.708Z,13.60
2022-12-19T05:54:58.899Z,13.50
2022-12-19T06:00:05.552Z,11.20
2022-12-19T06:05:11.088Z,11.90
2022-12-19T06:10:17.016Z,13.20
2022-12-19T06:15:21.754Z,12.20
2022-12-19T06:20:26.741Z,14.80
2022-12-19T06:25:30.448Z,12.80
2022-12-19T06:30:34.848Z,15.10
2022-12-19T06:35:38.821Z,14.80
2022-12-19T06:41:03.697Z,14.80
2022-12-19T06:46:09.434Z,13.00
2022-12-19T06:51:14.875Z,14.20
2022-12-19T06:56:21.019Z,14.70
2022-12-19T07:01:41.323Z,14.60
2022-12-19T07:06:49.196Z,14.40
2022-12-19T07:11:55.119Z,17.00
2022-12-19T07:17:01.671Z,13.60
2022-12-19T07:22:07.037Z,18.90
2022-12-19T07:27:10.754Z,18.30
2022-12-19T07:32:15.136Z,14.70
2022-12-19T07:37:20.326Z,16.00
2022-12-19T07:42:29.351Z,15.00
2022-12-19T07:47:38.147Z,16.30
2022-12-19T07:52:42.950Z,18.50
2022-12-19T07:57:47.793Z,12.60
2022-12-19T08:02:52.235Z,19.70
2022-12-19T08:07:57.373Z,15.40
2022-12-19T08:13:02.421Z,15.40
2022-12-19T08:18:07.293Z,14.80
2022-12-19T08:23:10.726Z,14.40
2022-12-19T08:28:14.519Z,18.10
2022-12-19T08:33:20.641Z,17.40
2022-12-19T08:38:24.171Z,16.50
2022-12-19T08:43:29.173Z,14.30
2022-12-19T08:48:34.819Z,15.00
2022-12-19T08:53:41.911Z,14.30
2022-12-19T08:58:47.293Z,14.70
2022-12-19T09:04:41.423Z,18.30
2022-12-19T09:09:17.714Z,16.80
2022-12-19T09:14:22.434Z,12.40
2022-12-19T09:19:27.913Z,16.60
2022-12-19T09:24:33.077Z,16.70
2022-12-19T09:29:36.939Z,17.20
2022-12-19T09:34:42.032Z,15.30
2022-12-19T09:39:48.335Z,18.50
2022-12-19T09:45:00.735Z,18.70
2022-12-19T09:50:33.268Z,17.50
2022-12-19T09:55:41.253Z,17.50
2022-12-19T10:00:55.050Z,17.60
2022-12-19T10:07:11.418Z,13.40
2022-12-19T10:17:23.599Z,15.80
2022-12-19T10:22:33.837Z,15.90
2022-12-19T10:27:59.446Z,18.30
2022-12-19T10:33:08.191Z,15.80
2022-12-19T10:38:38.350Z,16.60
2022-12-19T10:44:08.818Z,17.30
2022-12-19T10:49:18.432Z,15.60
2022-12-19T10:54:30.662Z,18.20
2022-12-19T10:59:38.957Z,15.50
2022-12-19T11:04:43.161Z,18.50
2022-12-19T11:10:09.174Z,16.90
2022-12-19T11:19:41.890Z,15.10
2022-12-19T11:29:54.792Z,14.60
2022-12-19T11:30:36.283Z,18.80
2022-12-19T11:37:00.565Z,19.20
2022-12-19T11:42:09.018Z,13.60
2022-12-19T11:47:25.898Z,18.70
2022-12-19T11:53:13.016Z,16.00
2022-12-19T11:58:26.244Z,19.00
2022-12-19T12:04:03.286Z,18.20
2022-12-19T12:11:13.853Z,14.00
2022-12-19T12:24:36.940Z,16.80
2022-12-19T12:31:05.880Z,18.30
2022-12-19T12:31:52.365Z,20.40
2022-12-19T12:35:55.108Z,18.20
2022-12-19T12:38:23.457Z,19.00
2022-12-19T12:43:57.680Z,18.20
2022-12-19T12:49:06.749Z,15.20
2022-12-19T12:54:16.907Z,20.40
2022-12-19T12:59:26.929Z,19.80
2022-12-19T13:04:34.116Z,17.00
2022-12-19T13:09:38.038Z,16.50
2022-12-19T13:14:46.254Z,20.40
2022-12-19T13:20:06.415Z,18.10
2022-12-19T13:25:48.711Z,18.90
2022-12-19T13:31:18.645Z,21.70
2022-12-19T13:39:51.597Z,20.70
2022-12-19T13:42:40.659Z,17.00
2022-12-19T13:47:45.783Z,21.70
2022-12-19T13:52:51.447Z,18.90
2022-12-19T13:57:56.334Z,20.00
2022-12-19T14:03:01.734Z,22.10
2022-12-19T14:08:08.268Z,19.20
2022-12-19T14:13:57.635Z,19.70
2022-12-19T14:19:01.722Z,22.90
2022-12-19T14:24:22.964Z,22.00
2022-12-19T14:30:26.730Z,17.60
2022-12-19T14:36:06.965Z,19.40
2022-12-19T14:40:41.977Z,21.40
2022-12-19T14:54:10.727Z,23.20
2022-12-19T14:54:21.239Z,23.30
2022-12-19T14:57:04.851Z,23.50
2022-12-19T15:02:10.676Z,22.10
2022-12-19T15:07:19.850Z,22.80
2022-12-19T15:14:47.748Z,19.00
2022-12-19T15:18:28.150Z,23.60
2022-12-19T15:23:33.684Z,18.70
2022-12-19T15:28:44.136Z,22.10
2022-12-19T15:34:23.408Z,24.20
2022-12-19T15:39:15.914Z,19.20
2022-12-19T15:44:31.549Z,16.90
2022-12-19T15:49:37.087Z,28.10
2022-12-19T15:54:50.504Z,19.60
2022-12-19T16:00:01.624Z,23.40
2022-12-19T16:05:07.456Z,22.70
2022-12-19T16:10:13.678Z,22.00
2022-12-19T16:15:31.479Z,23.00
2022-12-19T16:20:38.815Z,26.80
2022-12-19T16:25:46.712Z,23.70
2022-12-19T16:30:50.927Z,20.00
2022-12-19T16:36:04.649Z,27.50
2022-12-19T16:41:31.051Z,30.90
2022-12-19T16:46:51.146Z,29.70
2022-12-19T16:51:56.551Z,25.50
2022-12-19T16:57:04.366Z,27.60
2022-12-19T17:02:39.046Z,29.60
2022-12-19T17:07:44.919Z,24.60
2022-12-19T17:12:51.015Z,22.00
2022-12-19T17:18:01.694Z,18.70
2022-12-19T17:23:21.990Z,29.90
2022-12-19T17:28:28.834Z,20.80
2022-12-19T17:33:37.566Z,29.10
2022-12-19T17:38:42.195Z,27.00
2022-12-19T17:43:46.764Z,26.70
2022-12-19T17:48:54.140Z,23.70
2022-12-19T17:53:59.207Z,27.00
2022-12-19T17:59:04.373Z,22.80
2022-12-19T18:04:17.893Z,17.90
2022-12-19T18:09:25.886Z,22.50
2022-12-19T18:19:36.778Z,22.10
2022-12-19T18:24:41.457Z,26.30
2022-12-19T18:35:57.684Z,21.10
2022-12-19T18:41:04.165Z,23.10
2022-12-19T18:46:17.136Z,17.10
2022-12-19T18:51:23.892Z,18.30
2022-12-19T18:56:29.709Z,18.80
2022-12-19T19:01:40.300Z,21.80
2022-12-19T19:06:51.100Z,23.30
2022-12-19T19:11:56.380Z,24.70
2022-12-19T19:17:04.980Z,27.60
2022-12-19T19:22:11.469Z,20.90
2022-12-19T19:32:20.722Z,14.10
2022-12-19T19:37:26.747Z,20.00
2022-12-19T19:42:30.712Z,21.10
2022-12-19T19:47:37.739Z,24.80
2022-12-19T19:52:42.339Z,20.60
2022-12-19T19:57:46.185Z,16.80
2022-12-19T20:02:52.164Z,20.20
2022-12-19T20:07:56.747Z,20.70
2022-12-19T20:13:00.491Z,23.20
2022-12-19T20:18:03.869Z,19.00
2022-12-19T20:23:07.982Z,18.90
2022-12-19T20:28:11.559Z,11.00
2022-12-19T20:33:16.092Z,17.40
2022-12-19T20:38:20.945Z,19.70
2022-12-19T20:43:25.254Z,15.10
2022-12-19T20:48:32.175Z,13.30
2022-12-19T20:53:38.234Z,16.10
2022-12-19T20:58:42.594Z,15.70
2022-12-19T21:03:48.610Z,16.90
2022-12-19T21:08:55.775Z,13.60
2022-12-19T21:14:06.724Z,17.30
2022-12-19T21:19:12.491Z,13.90
2022-12-19T21:24:17.496Z,14.10
2022-12-19T21:29:22.640Z,15.70
2022-12-19T21:34:27.281Z,13.40
2022-12-19T21:39:32.144Z,20.50
2022-12-19T21:44:38.206Z,12.90
2022-12-19T21:49:43.271Z,20.00
2022-12-19T21:54:47.954Z,17.00
2022-12-19T21:59:52.939Z,17.60
2022-12-19T22:04:57.447Z,18.00
2022-12-19T22:10:02.524Z,16.80
2022-12-19T22:15:07.410Z,15.10
2022-12-19T22:20:12.893Z,18.70
2022-12-19T22:25:18.395Z,9.10
2022-12-19T22:30:23.383Z,13.10
2022-12-19T22:35:28.563Z,14.30
2022-12-19T22:40:33.425Z,15.70
2022-12-19T22:45:38.072Z,12.30
2022-12-19T22:50:47.395Z,17.00
2022-12-19T22:55:52.180Z,15.50
2022-12-19T23:00:57.130Z,14.70
2022-12-19T23:06:02.986Z,17.20
2022-12-19T23:11:09.978Z,14.70
2022-12-19T23:16:14.084Z,13.70
2022-12-19T23:21:25.134Z,15.20
2022-12-19T23:26:33.755Z,18.70
2022-12-19T23:31:41.620Z,16.50
2022-12-19T23:42:11.294Z,13.20
2022-12-19T23:47:14.899Z,16.80
2022-12-19T23:52:18.808Z,11.00
2022-12-19T23:57:22.363Z,14.80
